地図

経路データ

SID SEASON NUMBER BASIN SUBBASIN NAME ISO_TIME NATURE LAT LON WMO_WIND WMO_PRES WMO_AGENCY TRACK_TYPE DIST2LAND LANDFALL IFLAG USA_AGENCY USA_ATCF_ID USA_LAT USA_LON USA_RECORD USA_STATUS USA_WIND USA_PRES USA_SSHS USA_R34_NE USA_R34_SE USA_R34_SW USA_R34_NW USA_R50_NE USA_R50_SE USA_R50_SW USA_R50_NW USA_R64_NE USA_R64_SE USA_R64_SW USA_R64_NW USA_POCI USA_ROCI USA_RMW USA_EYE TOKYO_LAT TOKYO_LON TOKYO_GRADE TOKYO_WIND TOKYO_PRES TOKYO_R50_DIR TOKYO_R50_LONG TOKYO_R50_SHORT TOKYO_R30_DIR TOKYO_R30_LONG TOKYO_R30_SHORT TOKYO_LAND CMA_LAT CMA_LON CMA_CAT CMA_WIND CMA_PRES HKO_LAT HKO_LON HKO_CAT HKO_WIND HKO_PRES NEWDELHI_LAT NEWDELHI_LON NEWDELHI_GRADE NEWDELHI_WIND NEWDELHI_PRES NEWDELHI_CI NEWDELHI_DP NEWDELHI_POCI REUNION_LAT REUNION_LON REUNION_TYPE REUNION_WIND REUNION_PRES REUNION_TNUM REUNION_CI REUNION_RMW REUNION_R34_NE REUNION_R34_SE REUNION_R34_SW REUNION_R34_NW REUNION_R50_NE REUNION_R50_SE REUNION_R50_SW REUNION_R50_NW REUNION_R64_NE REUNION_R64_SE REUNION_R64_SW REUNION_R64_NW BOM_LAT BOM_LON BOM_TYPE BOM_WIND BOM_PRES BOM_TNUM BOM_CI BOM_RMW BOM_R34_NE BOM_R34_SE BOM_R34_SW BOM_R34_NW BOM_R50_NE BOM_R50_SE BOM_R50_SW BOM_R50_NW BOM_R64_NE BOM_R64_SE BOM_R64_SW BOM_R64_NW BOM_ROCI BOM_POCI BOM_EYE BOM_POS_METHOD BOM_PRES_METHOD NADI_LAT NADI_LON NADI_CAT NADI_WIND NADI_PRES WELLINGTON_LAT WELLINGTON_LON WELLINGTON_WIND WELLINGTON_PRES DS824_LAT DS824_LON DS824_STAGE DS824_WIND DS824_PRES TD9636_LAT TD9636_LON TD9636_STAGE TD9636_WIND TD9636_PRES TD9635_LAT TD9635_LON TD9635_WIND TD9635_PRES TD9635_ROCI NEUMANN_LAT NEUMANN_LON NEUMANN_CLASS NEUMANN_WIND NEUMANN_PRES MLC_LAT MLC_LON MLC_CLASS MLC_WIND MLC_PRES USA_GUST BOM_GUST BOM_GUST_PER REUNION_GUST REUNION_GUST_PER USA_SEAHGT USA_SEARAD_NE USA_SEARAD_SE USA_SEARAD_SW USA_SEARAD_NW STORM_SPEED STORM_DIR
1870021S10057 1870 3 SI MM NOT_NAMED 1870-01-21 06:00:00 NR -10.0000 56.5000 reunion main 794 794 _____O________ -1 -10.0000 56.5000 99 9.90000 0 0
1870021S10057 1870 3 SI MM NOT_NAMED 1870-01-21 09:00:00 NR -10.0044 56.4820 main 794 794 _____P________ -1 -10.0044 56.4820 99 0 237
1870021S10057 1870 3 SI MM NOT_NAMED 1870-01-21 12:00:00 NR -10.0215 56.4574 main 794 779 _____P________ -1 -10.0215 56.4574 99 1 221
1870021S10057 1870 3 SI MM NOT_NAMED 1870-01-21 15:00:00 NR -10.0640 56.4196 main 779 779 _____P________ -1 -10.0640 56.4196 99 2 219
1870021S10057 1870 3 SI MM NOT_NAMED 1870-01-21 18:00:00 NR -10.1445 56.3621 main 779 760 _____P________ -1 -10.1445 56.3621 99 3 213
1870021S10057 1870 3 SI MM NOT_NAMED 1870-01-21 21:00:00 NR -10.2756 56.2781 main 760 741 _____P________ -1 -10.2756 56.2781 99 4 211
1870021S10057 1870 3 SI MM NOT_NAMED 1870-01-22 00:00:00 NR -10.4701 56.1610 main 741 712 _____P________ -1 -10.4701 56.1610 99 5 210
1870021S10057 1870 3 SI MM NOT_NAMED 1870-01-22 03:00:00 NR -10.7407 56.0039 main 712 676 _____P________ -1 -10.7407 56.0039 99 7 209
1870021S10057 1870 3 SI MM NOT_NAMED 1870-01-22 06:00:00 NR -11.1000 55.8000 reunion main 676 642 _____O________ -1 -11.1000 55.8000 99 9.90000 9 209
1870021S10057 1870 3 SI MM NOT_NAMED 1870-01-22 09:00:00 NR -11.5550 55.5453 main 628 593 _____P________ -1 -11.5550 55.5453 99 11 209
1870021S10057 1870 3 SI MM NOT_NAMED 1870-01-22 12:00:00 NR -12.0891 55.2489 main 582 537 _____P________ -1 -12.0891 55.2489 99 13 208
1870021S10057 1870 3 SI MM NOT_NAMED 1870-01-22 15:00:00 NR -12.6799 54.9232 main 534 489 _____P________ -1 -12.6799 54.9232 99 14 208
1870021S10057 1870 3 SI MM NOT_NAMED 1870-01-22 18:00:00 NR -13.3050 54.5805 main 489 434 _____P________ -1 -13.3050 54.5805 99 14 208
1870021S10057 1870 3 SI MM NOT_NAMED 1870-01-22 21:00:00 NR -13.9419 54.2338 main 424 373 _____P________ -1 -13.9419 54.2338 99 14 208
1870021S10057 1870 3 SI MM NOT_NAMED 1870-01-23 00:00:00 NR -14.5681 53.8959 main 371 333 _____P________ -1 -14.5681 53.8959 99 14 207
1870021S10057 1870 3 SI MM NOT_NAMED 1870-01-23 03:00:00 NR -15.1615 53.5801 main 332 300 _____P________ -1 -15.1615 53.5801 99 13 207
1870021S10057 1870 3 SI MM NOT_NAMED 1870-01-23 06:00:00 NR -15.7000 53.3000 reunion main 301 286 _____O________ -1 -15.7000 53.3000 99 9.90000 11 206
1870021S10057 1870 3 SI MM NOT_NAMED 1870-01-23 09:00:00 NR -16.1339 53.0884 main 289 280 _____P________ -1 -16.1339 53.0884 99 9 205
1870021S10057 1870 3 SI MM NOT_NAMED 1870-01-23 12:00:00 NR -16.5256 52.9072 main 284 284 _____P________ -1 -16.5256 52.9072 99 8 203
1870021S10057 1870 3 SI MM NOT_NAMED 1870-01-23 15:00:00 NR -16.8772 52.7536 main 293 283 _____P________ -1 -16.8772 52.7536 99 7 202
1870021S10057 1870 3 SI MM NOT_NAMED 1870-01-23 18:00:00 NR -17.1905 52.6247 main 288 288 _____P________ -1 -17.1905 52.6247 99 6 201
1870021S10057 1870 3 SI MM NOT_NAMED 1870-01-23 21:00:00 NR -17.4677 52.5178 main 296 293 _____P________ -1 -17.4677 52.5178 99 6 200
1870021S10057 1870 3 SI MM NOT_NAMED 1870-01-24 00:00:00 NR -17.7104 52.4300 main 293 293 _____P________ -1 -17.7104 52.4300 99 5 199
1870021S10057 1870 3 SI MM NOT_NAMED 1870-01-24 03:00:00 NR -17.9206 52.3584 main 302 297 _____P________ -1 -17.9206 52.3584 99 4 198
1870021S10057 1870 3 SI MM NOT_NAMED 1870-01-24 06:00:00 NR -18.1000 52.3000 reunion main 299 299 _____O________ -1 -18.1000 52.3000 99 9.90000 3 198
1870021S10057 1870 3 SI MM NOT_NAMED 1870-01-24 09:00:00 NR -18.2508 52.2522 main 303 293 _____P________ -1 -18.2508 52.2522 99 3 196
1870021S10057 1870 3 SI MM NOT_NAMED 1870-01-24 12:00:00 NR -18.3763 52.2136 main 296 296 _____P________ -1 -18.3763 52.2136 99 2 198
1870021S10057 1870 3 SI MM NOT_NAMED 1870-01-24 15:00:00 NR -18.4801 52.1827 main 297 297 _____P________ -1 -18.4801 52.1827 99 2 197
1870021S10057 1870 3 SI MM NOT_NAMED 1870-01-24 18:00:00 NR -18.5658 52.1583 main 298 288 _____P________ -1 -18.5658 52.1583 99 2 196
1870021S10057 1870 3 SI MM NOT_NAMED 1870-01-24 21:00:00 NR -18.6370 52.1391 main 288 288 _____P________ -1 -18.6370 52.1391 99 1 196
1870021S10057 1870 3 SI MM NOT_NAMED 1870-01-25 00:00:00 NR -18.6974 52.1239 main 290 290 _____P________ -1 -18.6974 52.1239 99 1 0
1870021S10057 1870 3 SI MM NOT_NAMED 1870-01-25 03:00:00 NR -18.7505 52.1113 main 292 292 _____P________ -1 -18.7505 52.1113 99 1 191
1870021S10057 1870 3 SI MM NOT_NAMED 1870-01-25 06:00:00 NR -18.8000 52.1000 reunion main 292 _____O________ -1 -18.8000 52.1000 99 9.90000 1 208

IBTrACS Databaseについて

本データベースは、米国NOAAが公開する1842年以降の世界の熱帯低気圧のベストトラックデータアーカイブInternational Best Track Archive for Climate Stewardship (IBTrACS)を、ウェブで閲覧しやすい形式に変換したものです。

最終更新日:2021-10-21